Time;durP1;ratioP1;P1;durP2;ratioP2;P2;SDS_P1;SDS_P2;PMS_P1;PMS_P2;Temp;Humidity;BMP_temperature;BMP_pressure;BME280_temperature;BME280_humidity;BME280_pressure;Samples;Min_cycle;Max_cycle;Signal;HPM_P1;HPM_P2
2022/05/11 00:01:51;;;;;;;4.63;2.88;;;18.50;56.00;;;;;;5096092;28;20035;-72
2022/05/11 00:04:17;;;;;;;6.40;2.97;;;18.40;56.10;;;;;;5113950;28;20052;-71
2022/05/11 00:06:43;;;;;;;6.72;3.40;;;18.30;56.90;;;;;;5113939;28;20020;-71
2022/05/11 00:09:10;;;;;;;6.38;3.65;;;18.30;57.00;;;;;;5113908;28;20047;-71
2022/05/11 00:11:36;;;;;;;5.60;3.13;;;18.30;57.40;;;;;;5113815;28;20035;-71
2022/05/11 00:14:03;;;;;;;6.45;3.08;;;18.20;57.50;;;;;;5113732;28;20031;-72
2022/05/11 00:16:30;;;;;;;5.00;3.05;;;18.20;57.80;;;;;;5095897;28;20056;-71
2022/05/11 00:18:56;;;;;;;7.82;3.35;;;18.20;57.70;;;;;;5113747;28;20068;-71
2022/05/11 00:21:22;;;;;;;4.93;3.33;;;18.20;57.90;;;;;;5113757;28;20028;-71
2022/05/11 00:23:48;;;;;;;7.97;4.47;;;18.30;57.80;;;;;;5113698;28;20371;-71
2022/05/11 00:26:15;;;;;;;7.05;3.72;;;18.30;58.30;;;;;;5095704;28;20024;-71
2022/05/11 00:28:41;;;;;;;5.20;3.30;;;18.30;58.20;;;;;;5113532;28;20050;-71
2022/05/11 00:31:06;;;;;;;6.78;3.65;;;18.40;58.20;;;;;;5113549;28;20032;-72
2022/05/11 00:33:32;;;;;;;5.47;3.53;;;18.40;58.30;;;;;;5113631;28;20028;-71
2022/05/11 00:35:57;;;;;;;5.85;3.47;;;18.40;58.30;;;;;;5113528;28;20024;-71
2022/05/11 00:38:25;;;;;;;8.85;3.80;;;18.40;58.10;;;;;;5113515;28;20027;-71
2022/05/11 00:40:57;;;;;;;6.25;3.60;;;18.30;58.10;;;;;;5113476;28;20024;-71
2022/05/11 00:43:51;;;;;;;7.57;3.53;;;18.20;58.50;;;;;;5113501;28;20020;-71
2022/05/11 00:46:24;;;;;;;8.07;4.20;;;18.20;58.50;;;;;;5113578;28;20032;-71
2022/05/11 00:51:43;;;;;;;7.18;3.85;;;18.10;58.90;;;;;;5113488;28;20098;-71
2022/05/11 00:54:10;;;;;;;5.28;3.75;;;18.20;59.10;;;;;;5113314;28;20059;-71
2022/05/11 00:56:41;;;;;;;7.20;3.85;;;18.20;59.30;;;;;;5095403;28;20028;-71
2022/05/11 00:59:12;;;;;;;6.95;3.85;;;18.40;58.90;;;;;;5095370;28;20024;-71
2022/05/11 01:01:39;;;;;;;8.30;3.78;;;18.50;58.60;;;;;;5113315;28;20047;-71
2022/05/11 01:04:11;;;;;;;7.10;4.10;;;18.60;58.20;;;;;;5113224;28;20062;-71
2022/05/11 01:06:37;;;;;;;5.95;3.65;;;18.60;58.00;;;;;;5113245;28;20087;-71
2022/05/11 01:09:05;;;;;;;5.78;3.70;;;18.70;57.80;;;;;;5116795;28;20485;-71
2022/05/11 01:11:36;;;;;;;5.68;3.78;;;18.60;57.50;;;;;;5117318;28;20020;-71
2022/05/11 01:14:04;;;;;;;7.40;4.65;;;18.60;57.70;;;;;;5117215;28;20047;-71
2022/05/11 01:16:29;;;;;;;8.35;4.07;;;18.60;57.60;;;;;;5117051;28;20367;-72
2022/05/11 01:18:57;;;;;;;6.97;3.78;;;18.60;57.60;;;;;;5117189;28;20028;-71
2022/05/11 01:21:33;;;;;;;5.65;3.97;;;18.60;57.50;;;;;;5099133;28;20119;-71
2022/05/11 01:24:06;;;;;;;8.52;4.30;;;18.60;57.60;;;;;;5099153;28;20020;-71
2022/05/11 01:26:32;;;;;;;6.63;3.85;;;18.70;57.30;;;;;;5117207;28;20024;-71
2022/05/11 01:28:58;;;;;;;8.73;3.95;;;18.70;56.80;;;;;;5116911;28;20024;-71
2022/05/11 01:31:23;;;;;;;8.43;4.13;;;18.70;56.90;;;;;;5116888;28;20043;-71
2022/05/11 01:33:51;;;;;;;7.18;4.32;;;18.60;56.80;;;;;;5116793;28;20032;-71
2022/05/11 01:36:27;;;;;;;5.50;3.63;;;18.60;57.00;;;;;;5116852;28;20031;-71
2022/05/11 01:38:57;;;;;;;6.95;3.72;;;18.60;56.90;;;;;;5116807;28;20076;-71
2022/05/11 01:41:31;;;;;;;7.72;4.05;;;18.60;57.20;;;;;;5116903;28;20016;-71
2022/05/11 01:43:58;;;;;;;8.85;3.83;;;18.50;57.20;;;;;;5098793;28;20041;-71
2022/05/11 01:46:23;;;;;;;7.63;4.00;;;18.50;57.20;;;;;;5116650;28;20027;-71
2022/05/11 01:48:49;;;;;;;6.57;3.97;;;18.50;57.30;;;;;;5116579;28;20032;-71
2022/05/11 01:51:17;;;;;;;8.00;3.78;;;18.50;57.50;;;;;;5116506;28;20024;-71
2022/05/11 01:53:43;;;;;;;5.45;3.60;;;18.50;57.30;;;;;;5116443;28;20383;-71
2022/05/11 01:56:09;;;;;;;6.28;3.60;;;18.50;57.20;;;;;;5116471;28;20020;-71
2022/05/11 01:58:35;;;;;;;10.80;4.05;;;18.60;57.10;;;;;;5098492;28;20028;-71
2022/05/11 02:01:01;;;;;;;8.82;3.90;;;18.60;57.30;;;;;;5116377;28;20023;-71
2022/05/11 02:03:27;;;;;;;7.63;3.60;;;18.70;57.40;;;;;;5116309;28;20502;-71
2022/05/11 02:08:43;;;;;;;7.10;3.97;;;18.60;58.10;;;;;;5116484;28;20031;-71
2022/05/11 02:11:09;;;;;;;5.85;3.88;;;18.60;57.20;;;;;;5116182;28;20024;-71
2022/05/11 02:13:34;;;;;;;7.65;3.92;;;18.50;57.20;;;;;;5115916;28;20020;-71
2022/05/11 02:16:00;;;;;;;6.55;3.55;;;18.50;57.60;;;;;;5116018;28;20025;-71
2022/05/11 02:18:26;;;;;;;7.57;3.70;;;18.50;57.70;;;;;;5115365;28;20048;-71
2022/05/11 02:20:52;;;;;;;6.25;4.05;;;18.50;57.70;;;;;;5115366;28;20054;-71
2022/05/11 02:23:20;;;;;;;7.90;3.90;;;18.50;57.50;;;;;;5098085;28;20039;-71
2022/05/11 02:25:47;;;;;;;6.40;4.30;;;18.60;57.60;;;;;;5115879;28;20050;-71
2022/05/11 02:28:14;;;;;;;7.20;3.70;;;18.60;57.60;;;;;;5115868;28;20028;-71
2022/05/11 02:30:41;;;;;;;6.97;3.92;;;18.50;57.70;;;;;;5097790;28;20028;-71
2022/05/11 02:33:08;;;;;;;6.50;3.88;;;18.50;57.70;;;;;;5097774;28;20379;-71
2022/05/11 02:35:33;;;;;;;8.15;4.90;;;18.50;57.60;;;;;;5115725;28;20032;-71
2022/05/11 02:38:02;;;;;;;6.63;3.92;;;18.50;57.70;;;;;;5115645;28;20032;-71
2022/05/11 02:40:34;;;;;;;5.00;3.90;;;18.50;57.70;;;;;;5115576;28;20025;-71
2022/05/11 02:43:03;;;;;;;;;;;18.50;57.70;;;;;;5098090;28;20032;-71
2022/05/11 02:45:31;;;;;;;5.93;3.45;;;18.40;57.60;;;;;;5115531;28;19911;-71
2022/05/11 02:47:57;;;;;;;7.68;4.25;;;18.30;58.30;;;;;;5115386;28;20032;-71
2022/05/11 02:50:28;;;;;;;6.30;3.58;;;18.20;58.80;;;;;;5080931;28;20027;-71
2022/05/11 02:52:54;;;;;;;6.88;3.88;;;18.20;58.80;;;;;;5115321;28;20111;-71
2022/05/11 02:55:20;;;;;;;7.32;4.10;;;18.20;58.80;;;;;;5097439;28;20025;-71
2022/05/11 02:57:46;;;;;;;5.40;3.50;;;18.30;58.80;;;;;;5115252;28;20020;-71
2022/05/11 03:00:14;;;;;;;7.38;3.38;;;18.20;58.70;;;;;;5115209;28;20049;-71
2022/05/11 03:02:40;;;;;;;5.07;3.20;;;18.20;58.80;;;;;;5115201;28;20031;-71
2022/05/11 03:05:07;;;;;;;4.95;3.13;;;18.20;58.90;;;;;;5115112;28;20025;-71
2022/05/11 03:07:33;;;;;;;8.02;3.63;;;18.20;58.90;;;;;;5115067;28;20077;-71
2022/05/11 03:09:58;;;;;;;4.78;3.35;;;18.10;59.10;;;;;;5115045;28;20021;-71
2022/05/11 03:12:24;;;;;;;5.40;3.53;;;18.10;58.90;;;;;;5114966;28;20490;-71
2022/05/11 03:14:53;;;;;;;6.68;3.45;;;18.10;59.10;;;;;;5114875;28;20087;-71
2022/05/11 03:17:19;;;;;;;9.13;3.40;;;18.10;59.10;;;;;;5114677;28;20399;-71
2022/05/11 03:19:45;;;;;;;5.45;3.22;;;18.10;58.90;;;;;;5114843;28;20017;-71
2022/05/11 03:22:11;;;;;;;6.93;3.58;;;18.10;59.00;;;;;;5114801;28;20028;-71
2022/05/11 03:24:36;;;;;;;5.03;3.22;;;18.10;59.00;;;;;;5114779;28;20028;-71
2022/05/11 03:27:03;;;;;;;9.55;3.78;;;18.10;58.90;;;;;;5114720;28;20077;-71
2022/05/11 03:29:28;;;;;;;7.53;3.35;;;17.90;59.00;;;;;;5114690;28;20050;-71
2022/05/11 03:34:39;;;;;;;5.28;3.50;;;18.00;59.20;;;;;;5114575;28;20042;-71
2022/05/11 03:37:12;;;;;;;5.82;3.30;;;18.00;59.20;;;;;;5114478;28;20027;-71
2022/05/11 03:39:37;;;;;;;6.28;3.40;;;18.00;59.30;;;;;;5096579;28;20023;-71
2022/05/11 03:42:05;;;;;;;5.32;3.17;;;18.00;59.40;;;;;;5114451;28;20177;-71
2022/05/11 03:44:30;;;;;;;10.93;3.60;;;18.00;58.90;;;;;;5114354;28;20032;-71
2022/05/11 03:46:56;;;;;;;5.78;3.65;;;18.00;59.00;;;;;;5114444;28;20080;-71
2022/05/11 03:49:22;;;;;;;5.97;3.22;;;18.00;59.00;;;;;;5114292;28;20107;-71
2022/05/11 03:51:49;;;;;;;7.13;3.50;;;17.90;58.90;;;;;;5114202;28;20028;-71
2022/05/11 03:54:14;;;;;;;5.43;3.28;;;18.00;59.20;;;;;;5114138;28;20028;-71
2022/05/11 03:56:40;;;;;;;5.47;3.20;;;18.00;59.50;;;;;;5096232;28;20029;-71
2022/05/11 03:59:06;;;;;;;6.90;3.47;;;18.00;59.10;;;;;;5114116;28;20021;-71
2022/05/11 04:01:31;;;;;;;5.25;3.30;;;18.00;59.10;;;;;;5096186;28;20399;-72
2022/05/11 04:03:57;;;;;;;4.70;3.00;;;17.90;59.00;;;;;;5096244;28;20046;-71
2022/05/11 04:06:23;;;;;;;4.90;2.75;;;17.90;58.90;;;;;;5113974;28;20027;-71
2022/05/11 04:08:48;;;;;;;4.75;2.85;;;18.00;59.00;;;;;;5096041;28;20058;-71
2022/05/11 04:11:14;;;;;;;4.20;3.15;;;18.00;58.80;;;;;;5113908;28;20086;-71
2022/05/11 04:13:40;;;;;;;4.78;2.95;;;18.00;59.00;;;;;;5113723;28;20387;-71
2022/05/11 04:16:07;;;;;;;5.38;3.00;;;18.00;59.10;;;;;;5113839;28;20028;-71
2022/05/11 04:18:34;;;;;;;5.25;2.80;;;18.00;59.10;;;;;;5092538;28;20037;-71
2022/05/11 04:20:59;;;;;;;4.15;2.90;;;18.00;59.10;;;;;;5093466;28;20080;-71
2022/05/11 04:23:25;;;;;;;5.05;3.25;;;18.00;59.10;;;;;;5093375;28;20036;-71
2022/05/11 04:25:51;;;;;;;4.45;3.05;;;18.00;59.00;;;;;;5093383;28;20055;-71
2022/05/11 04:28:17;;;;;;;5.10;2.95;;;18.00;58.80;;;;;;5093284;28;20038;-71
2022/05/11 04:30:43;;;;;;;4.40;3.33;;;18.00;59.00;;;;;;5093339;28;20024;-71
2022/05/11 04:33:09;;;;;;;6.03;2.92;;;18.00;59.10;;;;;;5093252;28;20035;-72
2022/05/11 04:35:36;;;;;;;6.15;2.90;;;18.00;59.10;;;;;;5093261;28;20088;-72
2022/05/11 04:38:03;;;;;;;3.53;2.72;;;18.00;59.20;;;;;;5093264;28;20024;-72
2022/05/11 04:40:31;;;;;;;6.45;3.33;;;18.00;59.10;;;;;;5093180;28;20052;-71
2022/05/11 04:42:56;;;;;;;6.05;3.00;;;18.00;59.20;;;;;;5091409;28;20036;-71
2022/05/11 04:45:23;;;;;;;6.47;3.20;;;18.00;59.10;;;;;;5092213;28;20074;-71
2022/05/11 04:47:48;;;;;;;4.72;3.13;;;18.00;59.10;;;;;;5093206;28;20084;-71
2022/05/11 04:50:16;;;;;;;6.55;3.20;;;18.00;59.20;;;;;;5093108;28;20395;-70
2022/05/11 04:52:42;;;;;;;4.15;2.80;;;18.00;59.40;;;;;;5091973;28;20031;-70
2022/05/11 04:55:09;;;;;;;4.43;3.10;;;18.00;59.40;;;;;;5093089;28;20103;-70
2022/05/11 04:57:36;;;;;;;5.18;3.00;;;18.00;59.50;;;;;;5091946;28;20020;-70
2022/05/11 05:00:10;;;;;;;6.03;3.30;;;18.00;59.50;;;;;;5093044;28;20027;-70
2022/05/11 05:02:36;;;;;;;5.35;3.00;;;18.00;59.80;;;;;;5092117;28;20102;-70
2022/05/11 05:05:05;;;;;;;5.28;3.40;;;18.00;60.10;;;;;;5092998;28;20395;-70
2022/05/11 05:07:34;;;;;;;6.13;3.30;;;18.00;60.10;;;;;;5093011;28;20077;-70
2022/05/11 05:10:03;;;;;;;4.97;3.05;;;18.00;60.20;;;;;;5092871;28;20021;-69
2022/05/11 05:12:29;;;;;;;6.18;3.20;;;18.00;60.20;;;;;;5092988;28;20028;-70
2022/05/11 05:14:55;;;;;;;4.75;3.05;;;17.90;60.30;;;;;;5092785;28;20029;-70
2022/05/11 05:17:20;;;;;;;4.68;3.30;;;17.90;60.40;;;;;;5102901;28;20067;-69
2022/05/11 05:19:47;;;;;;;6.57;3.40;;;17.90;60.30;;;;;;5112955;28;20032;-70
2022/05/11 05:22:13;;;;;;;6.85;3.10;;;17.90;60.60;;;;;;5113077;28;20084;-70
2022/05/11 05:24:39;;;;;;;5.25;2.80;;;17.90;60.90;;;;;;5113045;28;20047;-70
2022/05/11 05:27:05;;;;;;;4.65;2.85;;;17.90;60.70;;;;;;5112929;28;20028;-70
2022/05/11 05:32:15;;;;;;;3.75;2.60;;;17.90;60.80;;;;;;5113136;28;20030;-70
2022/05/11 05:34:45;;;;;;;5.28;3.13;;;17.80;61.10;;;;;;5112845;28;20040;-70
2022/05/11 05:37:12;;;;;;;6.35;3.25;;;17.80;61.20;;;;;;5113025;28;20047;-70
2022/05/11 05:39:38;;;;;;;5.38;2.97;;;17.80;61.20;;;;;;5112913;28;20054;-70
2022/05/11 05:42:05;;;;;;;5.75;3.05;;;17.80;61.20;;;;;;5112855;28;20032;-69
2022/05/11 05:44:32;;;;;;;5.35;2.70;;;17.90;61.20;;;;;;5113003;28;20039;-69
2022/05/11 05:47:07;;;;;;;5.07;2.72;;;17.90;61.60;;;;;;5112826;28;20032;-69
2022/05/11 05:49:34;;;;;;;6.35;2.92;;;17.90;61.80;;;;;;5094965;28;20036;-69
2022/05/11 05:52:01;;;;;;;4.65;2.78;;;17.90;61.70;;;;;;5112725;28;20038;-69
2022/05/11 05:54:30;;;;;;;3.90;2.45;;;17.90;61.10;;;;;;5114957;28;20028;-69
2022/05/11 05:56:57;;;;;;;4.53;2.78;;;17.90;61.10;;;;;;5099170;28;20020;-69
2022/05/11 05:59:22;;;;;;;5.53;2.90;;;18.00;61.00;;;;;;5116427;28;20048;-69
2022/05/11 06:01:48;;;;;;;4.20;2.67;;;18.00;61.70;;;;;;5116352;28;20028;-69
2022/05/11 06:04:13;;;;;;;5.32;2.53;;;18.00;60.70;;;;;;5116348;28;20050;-68
2022/05/11 06:06:39;;;;;;;8.15;2.55;;;18.10;60.60;;;;;;5116273;28;20032;-69
2022/05/11 06:09:05;;;;;;;4.53;2.40;;;18.10;60.60;;;;;;5116338;28;20079;-69
2022/05/11 06:11:30;;;;;;;5.72;2.70;;;18.10;58.90;;;;;;5098335;28;20055;-69
2022/05/11 06:13:57;;;;;;;7.32;2.42;;;18.10;59.30;;;;;;5116070;28;20039;-70
2022/05/11 06:16:22;;;;;;;2.83;2.20;;;18.10;59.40;;;;;;5115840;28;20020;-71
2022/05/11 06:18:49;;;;;;;3.70;2.10;;;18.10;59.10;;;;;;5116095;28;20027;-70
2022/05/11 06:21:16;;;;;;;7.20;2.60;;;18.10;57.50;;;;;;5115922;28;20092;-70
2022/05/11 06:23:42;;;;;;;4.38;2.53;;;18.20;58.40;;;;;;5115927;28;20021;-70
2022/05/11 06:26:09;;;;;;;3.42;1.95;;;18.10;58.50;;;;;;5115880;28;20020;-70
2022/05/11 06:28:37;;;;;;;4.05;1.98;;;18.20;58.40;;;;;;5115812;28;20111;-71
2022/05/11 06:31:03;;;;;;;4.13;2.20;;;18.10;57.00;;;;;;5115862;28;20023;-71
2022/05/11 06:33:28;;;;;;;4.93;2.10;;;18.20;57.90;;;;;;5115686;28;20042;-72
2022/05/11 06:35:55;;;;;;;3.50;1.92;;;18.20;57.50;;;;;;5115665;28;20062;-71
2022/05/11 06:38:21;;;;;;;2.85;1.65;;;18.30;57.20;;;;;;5064446;28;20028;-70
2022/05/11 06:40:46;;;;;;;4.05;1.90;;;18.20;55.70;;;;;;5115581;28;20028;-70
2022/05/11 06:43:12;;;;;;;3.63;1.70;;;18.20;55.80;;;;;;5115550;28;20032;-69
2022/05/11 06:45:38;;;;;;;4.05;2.15;;;18.30;55.60;;;;;;5115527;28;20032;-70
2022/05/11 06:48:04;;;;;;;4.40;2.03;;;18.30;55.90;;;;;;5097458;28;20036;-70
2022/05/11 06:50:29;;;;;;;2.53;1.67;;;18.30;55.20;;;;;;5097513;28;20104;-70
2022/05/11 06:52:56;;;;;;;3.17;1.70;;;18.40;55.00;;;;;;5115268;28;20023;-70
2022/05/11 07:00:51;;;;;;;6.35;1.80;;;18.40;54.90;;;;;;5115525;28;20053;-69
2022/05/11 07:03:18;;;;;;;4.32;1.70;;;18.50;56.20;;;;;;5115149;28;20032;-69
2022/05/11 07:05:47;;;;;;;9.48;4.50;;;18.40;54.50;;;;;;5114328;28;20028;-69
2022/05/11 07:08:12;;;;;;;4.00;1.42;;;18.50;55.00;;;;;;5115148;28;20058;-70
2022/05/11 07:10:42;;;;;;;2.33;1.58;;;18.50;54.90;;;;;;5097232;28;20028;-68
2022/05/11 07:13:08;;;;;;;4.88;1.80;;;18.60;54.70;;;;;;5115045;28;20041;-67
2022/05/11 07:15:34;;;;;;;4.05;1.67;;;18.70;54.50;;;;;;5097214;28;20059;-69
2022/05/11 07:18:03;;;;;;;3.15;1.90;;;18.70;54.40;;;;;;5096793;28;20044;-70
2022/05/11 07:20:36;;;;;;;4.25;1.55;;;18.80;53.90;;;;;;5114809;28;20031;-71
2022/05/11 07:23:05;;;;;;;3.95;1.70;;;18.80;54.20;;;;;;5114731;28;20016;-71
2022/05/11 07:25:32;;;;;;;4.55;1.92;;;18.80;54.70;;;;;;5114789;28;20498;-70
2022/05/11 07:27:58;;;;;;;4.80;1.92;;;18.80;53.80;;;;;;5114581;28;20043;-71
2022/05/11 07:30:30;;;;;;;3.75;1.80;;;18.80;54.10;;;;;;5114643;28;20032;-70
2022/05/11 07:32:56;;;;;;;5.40;1.98;;;18.90;53.60;;;;;;5114503;28;20024;-69
2022/05/11 07:35:23;;;;;;;6.90;2.45;;;19.00;54.20;;;;;;5114530;28;20016;-71
2022/05/11 07:37:49;;;;;;;4.43;2.25;;;19.10;53.80;;;;;;5114595;28;20020;-69
2022/05/11 07:40:16;;;;;;;3.30;1.83;;;19.00;53.90;;;;;;5096496;28;20031;-70
2022/05/11 07:42:43;;;;;;;4.70;2.10;;;19.10;54.50;;;;;;5114438;28;20027;-69
2022/05/11 07:45:10;;;;;;;4.45;2.03;;;19.10;54.60;;;;;;5114390;28;20020;-70
2022/05/11 07:47:36;;;;;;;3.80;1.83;;;19.20;54.40;;;;;;5096630;28;20088;-70
2022/05/11 07:50:03;;;;;;;4.22;1.85;;;19.20;52.50;;;;;;5114332;28;20017;-71
2022/05/11 07:52:28;;;;;;;7.72;1.90;;;19.20;52.30;;;;;;5114194;28;20471;-71
2022/05/11 07:54:54;;;;;;;3.80;1.90;;;19.20;53.00;;;;;;5114148;28;20050;-70
2022/05/11 08:00:06;;;;;;;5.70;2.50;;;19.40;52.10;;;;;;5099091;28;20047;-69
2022/05/11 08:02:34;;;;;;;10.70;2.70;;;19.50;52.70;;;;;;5079524;28;20130;-69
2022/05/11 08:05:13;;;;;;;4.45;2.40;;;19.50;52.50;;;;;;5114018;28;20024;-69
2022/05/11 08:07:52;;;;;;;7.63;2.75;;;19.60;52.20;;;;;;5113967;28;20040;-69
2022/05/11 08:10:29;;;;;;;5.13;2.50;;;19.60;52.60;;;;;;5114123;28;20024;-69
2022/05/11 08:12:54;;;;;;;7.90;2.55;;;19.70;53.00;;;;;;5113835;28;20429;-69
2022/05/11 08:15:23;;;;;;;8.55;2.97;;;19.70;52.30;;;;;;5113853;28;20020;-69
2022/05/11 08:17:49;;;;;;;6.55;2.67;;;19.70;52.70;;;;;;5113561;28;20044;-69
2022/05/11 08:20:20;;;;;;;9.88;2.88;;;19.70;53.80;;;;;;5113740;28;20016;-70
2022/05/11 08:22:46;;;;;;;4.10;2.50;;;19.70;53.30;;;;;;5113952;28;20106;-69
2022/05/11 08:25:20;;;;;;;7.32;3.03;;;19.60;52.30;;;;;;5113717;28;20016;-69
2022/05/11 08:27:47;;;;;;;9.80;3.15;;;19.70;52.40;;;;;;5113633;28;20031;-70
2022/05/11 08:35:43;;;;;;;8.90;3.50;;;19.80;52.20;;;;;;5098902;28;20043;-70
2022/05/11 08:38:13;;;;;;;7.50;3.03;;;19.90;52.90;;;;;;5079115;28;20028;-69
2022/05/11 08:40:55;;;;;;;;;;;;;;;;;;;;;
2022/05/11 08:43:21;;;;;;;;;;;19.90;51.70;;;;;;5113854;28;20506;-70
2022/05/11 08:46:00;;;;;;;5.38;2.97;;;19.90;51.60;;;;;;5113440;28;19908;-70
2022/05/11 08:48:39;;;;;;;4.43;2.70;;;19.90;50.60;;;;;;5113439;28;20080;-70
2022/05/11 08:51:09;;;;;;;8.27;3.35;;;19.90;51.50;;;;;;5113360;28;20024;-70
2022/05/11 08:53:38;;;;;;;8.00;2.80;;;19.90;51.10;;;;;;5113469;28;20475;-70
2022/05/11 08:56:18;;;;;;;4.45;2.67;;;20.00;50.80;;;;;;5113313;28;20045;-68
2022/05/11 08:58:52;;;;;;;4.00;2.58;;;19.90;50.80;;;;;;5113390;28;20020;-67
2022/05/11 09:01:29;;;;;;;7.47;2.30;;;19.90;50.60;;;;;;5113240;28;20062;-67
2022/05/11 09:03:59;;;;;;;7.20;2.95;;;19.90;51.20;;;;;;5113216;28;20020;-67
2022/05/11 09:06:30;;;;;;;5.85;2.63;;;20.00;51.90;;;;;;5113207;28;20054;-67
2022/05/11 09:09:07;;;;;;;6.47;2.70;;;20.10;51.80;;;;;;5113332;28;20028;-67
2022/05/11 09:12:29;;;;;;;6.15;2.85;;;20.20;50.50;;;;;;5095401;28;20020;-67
2022/05/11 09:14:59;;;;;;;7.10;2.92;;;20.20;52.10;;;;;;5102055;28;20036;-67
2022/05/11 09:18:13;;;;;;;5.63;3.25;;;20.30;49.50;;;;;;5113108;28;20044;-67
2022/05/11 09:20:56;;;;;;;6.43;3.08;;;20.30;49.40;;;;;;5104834;28;20036;-67
2022/05/11 09:24:10;;;;;;;5.75;2.75;;;20.40;49.20;;;;;;5113231;28;20051;-67
2022/05/11 09:27:21;;;;;;;6.00;3.10;;;20.30;49.70;;;;;;5113228;28;20059;-67
2022/05/11 09:29:57;;;;;;;6.10;3.10;;;20.40;50.00;;;;;;5116222;28;20028;-64
2022/05/11 09:32:35;;;;;;;5.90;2.85;;;20.50;49.40;;;;;;5098992;28;20028;-67
2022/05/11 09:35:22;;;;;;;6.72;2.90;;;20.60;50.10;;;;;;5116895;28;20024;-66
2022/05/11 09:38:26;;;;;;;7.65;3.25;;;20.60;50.20;;;;;;5116865;28;20020;-66
2022/05/11 09:41:07;;;;;;;8.27;3.47;;;20.60;50.00;;;;;;5116979;28;20020;-67
2022/05/11 09:43:34;;;;;;;6.43;2.83;;;20.70;53.00;;;;;;5098746;28;20127;-66
2022/05/11 09:46:14;;;;;;;6.45;3.00;;;20.90;50.40;;;;;;5116709;28;20046;-66
2022/05/11 09:48:40;;;;;;;8.75;2.80;;;20.90;49.20;;;;;;5116702;28;20067;-66
2022/05/11 09:51:23;;;;;;;9.55;3.47;;;20.80;49.90;;;;;;5116549;28;20035;-66
2022/05/11 09:54:19;;;;;;;7.32;2.95;;;20.90;48.90;;;;;;5116495;28;20023;-66
2022/05/11 09:57:02;;;;;;;7.00;3.35;;;21.00;49.10;;;;;;5116709;28;20024;-70
2022/05/11 09:59:51;;;;;;;7.75;3.25;;;20.90;48.70;;;;;;5116520;28;20016;-67
2022/05/11 10:03:02;;;;;;;8.00;3.47;;;20.80;48.20;;;;;;5098634;28;20028;-67
2022/05/11 10:05:38;;;;;;;7.13;3.28;;;20.90;48.80;;;;;;5014624;28;20033;-69
2022/05/11 10:08:25;;;;;;;5.80;2.85;;;20.70;48.00;;;;;;4998284;28;20597;-68
2022/05/11 10:10:59;;;;;;;8.02;3.60;;;20.80;50.00;;;;;;5070832;28;20040;-69
2022/05/11 10:13:52;;;;;;;7.50;3.67;;;20.80;51.10;;;;;;5116189;28;20038;-68
2022/05/11 10:22:20;;;;;;;9.10;3.40;;;21.10;51.00;;;;;;5116224;28;20058;-69
2022/05/11 10:25:13;;;;;;;6.40;3.45;;;21.20;49.00;;;;;;5115981;28;20028;-69
2022/05/11 10:28:06;;;;;;;5.07;3.00;;;21.40;48.30;;;;;;5115811;28;20471;-69
2022/05/11 10:30:31;;;;;;;;;;;21.40;47.10;;;;;;5098419;28;20054;-69
2022/05/11 10:33:26;;;;;;;6.68;3.10;;;21.40;48.90;;;;;;5097778;28;19904;-69
2022/05/11 10:35:59;;;;;;;7.85;3.85;;;21.40;49.30;;;;;;5094164;28;20036;-70
2022/05/11 10:38:40;;;;;;;6.78;3.53;;;21.60;48.10;;;;;;5115737;28;20024;-70
2022/05/11 10:41:36;;;;;;;6.57;3.53;;;21.70;46.80;;;;;;5096533;28;20024;-71
2022/05/11 10:44:29;;;;;;;9.45;3.60;;;21.80;47.30;;;;;;5115659;28;20028;-71
2022/05/11 10:47:16;;;;;;;7.32;3.55;;;21.70;47.10;;;;;;5115552;28;20042;-69
2022/05/11 10:50:04;;;;;;;9.85;3.10;;;21.90;47.70;;;;;;5097509;28;20058;-68
2022/05/11 10:52:36;;;;;;;8.68;3.33;;;22.00;47.20;;;;;;5097715;28;20028;-69
2022/05/11 10:55:23;;;;;;;6.75;3.15;;;22.00;46.20;;;;;;5115285;28;20056;-69
2022/05/11 10:58:06;;;;;;;6.85;3.15;;;22.00;46.70;;;;;;5115444;28;20016;-69
2022/05/11 11:00:41;;;;;;;7.85;4.05;;;22.20;48.40;;;;;;5115468;28;20028;-70
2022/05/11 11:03:20;;;;;;;6.28;3.10;;;22.30;46.10;;;;;;5115232;28;20027;-69
2022/05/11 11:07:11;;;;;;;7.68;3.40;;;22.30;47.90;;;;;;5097235;28;20024;-69
2022/05/11 11:08:53;;;;;;;7.03;3.38;;;22.20;46.60;;;;;;5114897;28;20036;-70
2022/05/11 11:11:44;;;;;;;6.47;2.83;;;22.20;46.50;;;;;;5115186;28;20027;-70
2022/05/11 11:14:14;;;;;;;6.20;3.20;;;22.20;47.20;;;;;;5096966;28;20055;-70
2022/05/11 11:16:41;;;;;;;6.82;3.47;;;22.20;47.00;;;;;;5114721;28;20020;-70
2022/05/11 11:19:09;;;;;;;6.22;3.33;;;22.30;47.30;;;;;;5115051;28;20026;-70
2022/05/11 11:21:40;;;;;;;8.77;3.40;;;22.50;45.50;;;;;;5096889;28;20028;-69
2022/05/11 11:24:27;;;;;;;7.73;3.30;;;22.50;44.70;;;;;;5114874;28;20028;-70
2022/05/11 11:27:05;;;;;;;11.00;3.42;;;22.60;46.70;;;;;;5114805;28;20055;-71
2022/05/11 11:29:38;;;;;;;6.57;2.97;;;22.70;45.70;;;;;;5114662;28;20050;-70
2022/05/11 11:32:11;;;;;;;7.65;3.05;;;22.60;43.80;;;;;;5096857;28;20049;-69
2022/05/11 11:34:41;;;;;;;7.65;3.88;;;22.70;44.70;;;;;;5096684;28;20020;-70
2022/05/11 11:37:25;;;;;;;5.30;2.95;;;22.70;44.10;;;;;;5114599;28;20048;-70
2022/05/11 11:39:57;;;;;;;7.63;3.45;;;22.70;45.20;;;;;;5114375;28;20035;-70
2022/05/11 11:42:38;;;;;;;9.68;3.22;;;22.80;45.00;;;;;;5114642;28;20030;-70
2022/05/11 11:45:11;;;;;;;9.98;3.10;;;22.90;43.70;;;;;;5096541;28;20020;-70
2022/05/11 11:47:59;;;;;;;6.40;3.03;;;23.00;44.00;;;;;;5114278;28;20031;-70
2022/05/11 11:50:58;;;;;;;10.25;3.13;;;23.10;44.10;;;;;;5114487;28;20038;-70
2022/05/11 11:53:42;;;;;;;5.35;2.83;;;23.20;42.60;;;;;;5114355;28;20084;-70
2022/05/11 11:56:23;;;;;;;6.65;3.00;;;23.00;43.90;;;;;;5114246;28;20048;-69
2022/05/11 11:59:11;;;;;;;11.77;2.90;;;23.00;44.00;;;;;;5114132;28;20052;-70
2022/05/11 12:01:46;;;;;;;8.90;2.90;;;23.10;43.10;;;;;;5114176;28;20016;-70
2022/05/11 12:04:22;;;;;;;5.90;2.60;;;23.10;44.70;;;;;;5114044;28;20087;-70
2022/05/11 12:15:18;;;;;;;4.50;2.50;;;23.50;43.40;;;;;;5113862;28;20035;-70
2022/05/11 12:17:43;;;;;;;6.38;2.83;;;23.30;42.30;;;;;;5113589;28;20048;-70
2022/05/11 12:20:17;;;;;;;6.50;3.03;;;23.30;42.20;;;;;;5113796;28;20039;-70
2022/05/11 12:22:46;;;;;;;5.13;2.92;;;23.50;42.60;;;;;;5113817;28;20016;-70
2022/05/11 12:25:28;;;;;;;5.45;2.75;;;23.60;41.00;;;;;;5113750;28;20028;-70
2022/05/11 12:27:56;;;;;;;10.75;3.47;;;23.70;42.30;;;;;;5113810;28;20099;-69
2022/05/11 12:30:42;;;;;;;8.95;3.30;;;23.80;42.50;;;;;;5113662;28;20024;-69
2022/05/11 12:33:08;;;;;;;5.03;2.42;;;23.80;41.70;;;;;;5113587;28;20032;-69
2022/05/11 12:35:35;;;;;;;5.95;2.60;;;23.80;42.70;;;;;;5113578;28;20153;-69
2022/05/11 12:38:02;;;;;;;5.85;2.70;;;23.80;42.70;;;;;;5113549;28;20016;-69
2022/05/11 12:40:31;;;;;;;5.00;2.47;;;23.90;42.40;;;;;;5113671;28;20020;-69
2022/05/11 12:42:59;;;;;;;4.03;2.50;;;23.70;41.90;;;;;;5113461;28;20110;-69
2022/05/11 12:45:46;;;;;;;5.28;2.40;;;23.90;41.70;;;;;;5113493;28;20027;-70
2022/05/11 12:48:34;;;;;;;5.50;2.20;;;24.00;41.90;;;;;;5113464;28;20032;-69
2022/05/11 12:51:03;;;;;;;5.95;2.53;;;23.70;40.60;;;;;;5095530;28;20031;-69
2022/05/11 12:53:32;;;;;;;6.22;2.45;;;23.60;42.20;;;;;;5113402;28;20038;-69
2022/05/11 12:56:14;;;;;;;7.95;2.63;;;23.70;42.80;;;;;;5113293;28;20075;-69
2022/05/11 12:59:17;;;;;;;6.55;2.60;;;24.10;39.90;;;;;;5113483;28;20020;-69
2022/05/11 13:01:43;;;;;;;6.20;2.22;;;24.10;40.40;;;;;;5113372;28;20035;-69
2022/05/11 13:04:24;;;;;;;8.40;2.78;;;23.90;40.00;;;;;;5115343;28;20025;-70
2022/05/11 13:06:56;;;;;;;9.02;2.38;;;23.60;39.40;;;;;;5117489;28;20020;-70
2022/05/11 13:09:25;;;;;;;;;;;23.70;41.80;;;;;;5118020;28;20028;-70
2022/05/11 13:11:51;;;;;;;7.30;2.10;;;23.80;40.80;;;;;;5099428;28;19904;-70
2022/05/11 13:14:31;;;;;;;5.57;2.25;;;23.90;40.40;;;;;;5117265;28;20049;-69
2022/05/11 13:17:02;;;;;;;9.25;2.50;;;24.10;39.70;;;;;;5117126;28;20044;-70
2022/05/11 13:19:30;;;;;;;7.03;2.33;;;24.10;40.40;;;;;;5117309;28;20045;-70
2022/05/11 13:22:00;;;;;;;6.38;2.33;;;24.20;40.90;;;;;;5117182;28;20017;-70
2022/05/11 13:24:49;;;;;;;6.00;2.20;;;24.30;41.20;;;;;;5117198;28;20490;-70
2022/05/11 13:27:48;;;;;;;5.07;2.35;;;24.50;39.40;;;;;;5117140;28;20036;-70
2022/05/11 13:30:45;;;;;;;6.43;2.50;;;24.40;39.60;;;;;;5117068;28;20028;-71
2022/05/11 13:33:39;;;;;;;5.60;2.28;;;24.50;40.00;;;;;;5097308;28;20095;-71
2022/05/11 13:36:38;;;;;;;3.92;2.42;;;24.60;39.70;;;;;;5116928;28;20020;-70
2022/05/11 13:39:09;;;;;;;9.00;2.65;;;24.70;39.00;;;;;;5098284;28;20032;-69
2022/05/11 13:41:57;;;;;;;6.45;2.33;;;24.70;40.50;;;;;;5116828;28;20031;-69
2022/05/11 13:44:26;;;;;;;8.15;2.22;;;24.60;39.20;;;;;;5116784;28;20039;-69
2022/05/11 13:49:40;;;;;;;6.75;2.38;;;24.60;38.70;;;;;;5116939;28;20043;-69
2022/05/11 13:52:36;;;;;;;7.38;2.08;;;24.60;38.90;;;;;;5116653;28;20039;-70
2022/05/11 13:55:04;;;;;;;9.50;2.33;;;24.70;38.60;;;;;;5116453;28;20032;-69